Time;durP1;ratioP1;P1;durP2;ratioP2;P2;SDS_P1;SDS_P2;PMS_P1;PMS_P2;Temp;Humidity;BMP_temperature;BMP_pressure;BME280_temperature;BME280_humidity;BME280_pressure;Samples;Min_cycle;Max_cycle;Signal;HPM_P1;HPM_P2
2023/05/18 00:01:08;;;;;;;17.70;5.80;;;;;;;9.74;77.72;100445.81;5112884;28;20031;-83
2023/05/18 00:03:34;;;;;;;13.32;6.68;;;;;;;9.53;77.98;100425.66;5113145;28;20027;-83
2023/05/18 00:06:03;;;;;;;15.20;7.53;;;;;;;9.65;78.28;100448.69;5112635;28;20045;-83
2023/05/18 00:08:35;;;;;;;14.70;6.28;;;;;;;9.45;78.04;100422.44;5112789;28;20024;-83
2023/05/18 00:11:01;;;;;;;12.40;6.28;;;;;;;9.52;77.77;100430.88;5112562;28;20475;-83
2023/05/18 00:13:27;;;;;;;13.80;6.03;;;;;;;9.65;77.69;100459.09;5094599;28;20047;-83
2023/05/18 00:15:52;;;;;;;10.40;5.28;;;;;;;9.60;77.71;100462.72;5111973;28;20544;-83
2023/05/18 00:18:22;;;;;;;13.30;5.10;;;;;;;9.44;77.35;100444.97;5112493;28;20387;-83
2023/05/18 00:20:57;;;;;;;15.70;5.70;;;;;;;9.36;77.73;100454.75;5112682;28;20106;-83
2023/05/18 00:23:24;;;;;;;13.73;5.53;;;;;;;9.16;77.34;100437.09;5112552;28;20497;-83
2023/05/18 00:25:49;;;;;;;15.90;5.57;;;;;;;9.31;77.75;100455.75;5112820;28;20046;-83
2023/05/18 00:28:15;;;;;;;17.45;5.85;;;;;;;9.29;77.94;100461.00;5112871;28;20467;-83
2023/05/18 00:30:40;;;;;;;18.90;6.13;;;;;;;9.28;78.40;100466.25;5112634;28;20026;-83
2023/05/18 00:33:05;;;;;;;14.95;6.15;;;;;;;9.28;78.41;100471.47;5112313;28;20023;-83
2023/05/18 00:35:31;;;;;;;14.63;5.68;;;;;;;9.04;78.59;100436.59;5112419;28;20035;-83
2023/05/18 00:37:56;;;;;;;19.00;5.80;;;;;;;9.02;78.64;100443.56;5112678;28;20028;-83
2023/05/18 00:40:24;;;;;;;14.90;6.05;;;;;;;8.79;79.65;100410.44;5112528;28;20020;-83
2023/05/18 00:42:49;;;;;;;16.55;5.63;;;;;;;8.88;79.38;100439.59;5112474;28;20107;-83
2023/05/18 00:45:15;;;;;;;15.30;6.40;;;;;;;8.81;79.45;100427.69;5112170;28;20107;-83
2023/05/18 00:47:40;;;;;;;11.60;5.15;;;;;;;8.76;79.42;100439.94;5112379;28;20045;-83
2023/05/18 00:50:06;;;;;;;12.05;4.75;;;;;;;8.84;79.66;100476.09;5111943;28;20031;-83
2023/05/18 00:52:32;;;;;;;15.23;6.25;;;;;;;8.73;79.48;100459.06;5112468;28;20030;-83
2023/05/18 00:54:58;;;;;;;10.50;4.35;;;;;;;8.55;79.89;100445.69;5112225;28;20085;-83
2023/05/18 00:57:24;;;;;;;9.98;4.90;;;;;;;8.57;79.54;100449.97;5112091;28;20111;-83
2023/05/18 00:59:50;;;;;;;12.25;5.20;;;;;;;8.68;79.60;100479.13;5112278;28;20024;-83
2023/05/18 01:02:16;;;;;;;15.32;5.55;;;;;;;8.66;79.34;100480.03;5112001;28;20024;-83
2023/05/18 01:04:41;;;;;;;13.75;5.15;;;;;;;8.82;78.89;100503.88;5112078;28;20024;-83
2023/05/18 01:07:07;;;;;;;14.43;5.03;;;;;;;8.69;79.29;100491.19;5112042;28;20122;-83
2023/05/18 01:09:33;;;;;;;12.02;4.80;;;;;;;8.54;79.06;100480.34;5093790;28;20019;-83
2023/05/18 01:12:06;;;;;;;13.63;5.28;;;;;;;8.44;78.86;100462.41;5112209;28;20032;-83
2023/05/18 01:14:37;;;;;;;12.07;4.47;;;;;;;8.45;78.94;100471.03;5111978;28;20510;-83
2023/05/18 01:17:06;;;;;;;;;;;;;;;8.52;79.15;100508.94;5112494;28;20023;-83
2023/05/18 01:20:23;;;;;;;13.82;4.75;;;;;;;8.29;79.15;100480.91;5112257;28;19907;-83
2023/05/18 01:23:00;;;;;;;12.93;4.47;;;;;;;8.30;79.08;100481.75;5029090;28;20041;-83
2023/05/18 01:25:39;;;;;;;12.18;4.10;;;;;;;8.53;78.95;100515.00;5028690;28;20029;-83
2023/05/18 01:28:12;;;;;;;14.80;4.75;;;;;;;8.53;78.82;100495.06;5032767;28;20069;-83
2023/05/18 01:30:40;;;;;;;12.63;3.80;;;;;;;8.19;79.05;100449.13;5032964;28;20029;-83
2023/05/18 01:33:09;;;;;;;15.18;4.55;;;;;;;8.40;78.63;100476.34;5032986;28;20056;-83
2023/05/18 01:35:40;;;;;;;13.52;4.30;;;;;;;8.49;78.68;100502.06;5032923;28;20410;-83
2023/05/18 01:38:06;;;;;;;12.52;4.60;;;;;;;8.52;78.57;100516.75;5032669;28;20529;-83
2023/05/18 01:40:36;;;;;;;9.50;4.32;;;;;;;8.30;78.96;100481.75;5033149;28;20041;-83
2023/05/18 01:43:10;;;;;;;11.80;3.78;;;;;;;8.44;79.35;100510.88;5033062;28;20511;-83
2023/05/18 01:45:40;;;;;;;11.38;3.58;;;;;;;8.41;79.35;100506.59;5032650;28;20117;-83
2023/05/18 01:48:09;;;;;;;5.80;3.50;;;;;;;8.42;79.41;100507.44;5032559;28;20049;-83
2023/05/18 01:50:38;;;;;;;12.95;5.00;;;;;;;8.55;79.78;100529.63;5032443;28;20416;-83
2023/05/18 01:53:16;;;;;;;10.13;4.45;;;;;;;8.54;79.61;100542.66;5032534;28;20142;-83
2023/05/18 01:55:44;;;;;;;10.15;3.70;;;;;;;8.22;79.77;100488.00;5032827;28;20135;-83
2023/05/18 01:58:11;;;;;;;10.93;4.35;;;;;;;8.30;80.40;100506.00;5032311;28;20036;-83
2023/05/18 02:00:36;;;;;;;12.52;4.13;;;;;;;8.08;80.47;100477.06;5108612;28;20040;-83
2023/05/18 02:03:02;;;;;;;7.20;3.80;;;;;;;8.38;80.66;100526.56;5115265;28;20024;-83
2023/05/18 02:05:27;;;;;;;9.02;4.53;;;;;;;8.31;80.58;100514.63;5115229;28;20224;-83
2023/05/18 02:07:53;;;;;;;11.60;4.22;;;;;;;8.40;80.47;100527.41;5115430;28;20110;-83
2023/05/18 02:10:18;;;;;;;11.02;4.45;;;;;;;8.37;80.81;100528.31;5114980;28;20096;-83
2023/05/18 02:12:47;;;;;;;9.15;4.07;;;;;;;8.39;80.70;100523.97;5115200;28;20445;-83
2023/05/18 02:15:13;;;;;;;15.27;5.03;;;;;;;8.41;81.11;100523.91;5115051;28;20032;-83
2023/05/18 02:17:38;;;;;;;12.00;4.50;;;;;;;8.31;81.86;100512.88;5115042;28;20504;-83
2023/05/18 02:20:08;;;;;;;10.57;4.60;;;;;;;8.34;81.97;100527.50;5096893;28;20055;-83
2023/05/18 02:22:34;;;;;;;14.50;5.22;;;;;;;8.17;82.03;100497.59;5115184;28;20153;-83
2023/05/18 02:25:00;;;;;;;10.38;4.70;;;;;;;8.21;82.07;100503.59;5115032;28;20125;-83
2023/05/18 02:27:25;;;;;;;12.20;4.45;;;;;;;8.31;82.11;100525.84;5114774;28;20063;-83
2023/05/18 02:29:51;;;;;;;10.15;4.72;;;;;;;8.07;82.41;100477.13;5114805;28;20020;-83
2023/05/18 02:32:16;;;;;;;13.20;4.70;;;;;;;7.95;82.44;100454.91;5114526;28;20028;-83
2023/05/18 02:34:42;;;;;;;18.15;7.28;;;;;;;8.21;82.58;100507.03;5115239;28;20026;-83
2023/05/18 02:37:07;;;;;;;13.52;6.45;;;;;;;8.29;82.18;100530.22;5114607;28;20041;-83
2023/05/18 02:39:33;;;;;;;13.38;7.65;;;;;;;8.07;81.98;100503.06;5114021;28;20693;-83
2023/05/18 02:41:58;;;;;;;17.60;8.18;;;;;;;8.02;81.91;100495.38;5114663;28;20028;-83
2023/05/18 02:44:24;;;;;;;14.65;7.03;;;;;;;7.95;81.99;100489.47;5114400;28;20023;-83
2023/05/18 02:46:49;;;;;;;17.30;6.88;;;;;;;8.17;82.44;100530.50;5114305;28;20060;-83
2023/05/18 02:49:15;;;;;;;14.25;6.43;;;;;;;8.06;82.60;100537.69;5114351;28;20114;-83
2023/05/18 02:51:40;;;;;;;14.02;6.97;;;;;;;8.05;82.70;100533.34;5114643;28;20024;-83
2023/05/18 02:54:05;;;;;;;12.45;6.15;;;;;;;7.68;82.65;100488.34;5114543;28;20352;-83
2023/05/18 02:56:32;;;;;;;12.70;6.32;;;;;;;7.92;82.40;100532.78;5114278;28;20439;-83
2023/05/18 02:58:59;;;;;;;12.38;6.65;;;;;;;7.83;83.17;100532.97;5114362;28;20028;-83
2023/05/18 03:01:25;;;;;;;15.25;8.30;;;;;;;7.75;82.90;100517.56;5113885;28;20031;-83
2023/05/18 03:03:51;;;;;;;14.40;8.27;;;;;;;7.87;83.33;100545.84;5114411;28;20023;-83
2023/05/18 03:06:21;;;;;;;15.63;8.95;;;;;;;7.74;83.26;100532.28;5114046;28;20035;-83
2023/05/18 03:08:47;;;;;;;24.55;9.85;;;;;;;7.63;83.93;100515.25;5114193;28;20042;-83
2023/05/18 03:11:13;;;;;;;19.80;8.13;;;;;;;7.61;83.91;100527.38;5113855;28;20028;-83
2023/05/18 03:13:38;;;;;;;10.77;5.90;;;;;;;7.60;83.65;100523.94;5114040;28;20491;-83
2023/05/18 03:16:04;;;;;;;13.55;5.22;;;;;;;7.65;83.95;100542.84;5113892;28;20520;-83
2023/05/18 03:18:29;;;;;;;9.98;5.20;;;;;;;7.65;83.94;100550.63;5113806;28;20069;-83
2023/05/18 03:20:55;;;;;;;11.52;5.95;;;;;;;7.47;84.46;100518.16;5113988;28;20023;-83
2023/05/18 03:23:20;;;;;;;13.60;7.00;;;;;;;7.53;84.63;100531.88;5113680;28;20072;-82
2023/05/18 03:25:45;;;;;;;20.67;8.00;;;;;;;7.52;84.19;100546.56;5113751;28;20043;-83
2023/05/18 03:28:11;;;;;;;15.38;7.97;;;;;;;7.36;84.49;100521.84;5113940;28;20027;-83
2023/05/18 03:30:36;;;;;;;14.82;7.97;;;;;;;7.65;84.20;100566.19;5113624;28;20016;-83
2023/05/18 03:33:02;;;;;;;15.23;8.18;;;;;;;7.63;84.44;100548.97;5113771;28;20030;-83
2023/05/18 03:35:28;;;;;;;16.48;6.88;;;;;;;7.35;84.09;100502.84;5113537;28;20028;-83
2023/05/18 03:37:53;;;;;;;10.30;5.45;;;;;;;7.77;84.03;100562.50;5113683;28;20095;-83
2023/05/18 03:40:19;;;;;;;14.63;4.93;;;;;;;7.67;83.45;100535.06;5113354;28;20104;-83
2023/05/18 03:42:44;;;;;;;12.55;5.03;;;;;;;7.90;83.21;100568.28;5113524;28;20035;-82
2023/05/18 03:45:11;;;;;;;9.27;4.10;;;;;;;7.80;82.48;100544.28;5113372;28;20035;-83
2023/05/18 03:47:37;;;;;;;12.93;4.25;;;;;;;7.82;82.52;100539.91;5113447;28;20095;-83
2023/05/18 03:50:04;;;;;;;9.27;4.32;;;;;;;8.08;82.33;100577.41;5113269;28;20053;-83
2023/05/18 03:52:29;;;;;;;12.35;4.65;;;;;;;7.91;82.08;100536.25;5113240;28;20116;-83
2023/05/18 03:54:55;;;;;;;10.57;4.50;;;;;;;8.03;82.16;100543.78;5113385;28;20466;-83
2023/05/18 03:57:20;;;;;;;15.70;5.18;;;;;;;8.31;82.06;100576.91;5113047;28;20027;-83
2023/05/18 03:59:46;;;;;;;11.35;4.53;;;;;;;8.29;81.75;100542.34;5113201;28;20382;-83
2023/05/18 04:02:11;;;;;;;10.63;5.07;;;;;;;8.57;81.16;100573.75;5113471;28;20084;-82
2023/05/18 04:04:40;;;;;;;15.38;5.22;;;;;;;8.82;80.56;100593.03;5113148;28;20224;-83
2023/05/18 04:07:07;;;;;;;15.88;4.88;;;;;;;8.70;80.36;100538.81;5113133;28;20474;-83
2023/05/18 04:09:32;;;;;;;13.63;4.30;;;;;;;9.25;79.05;100560.75;5049691;28;20029;-83
2023/05/18 04:11:58;;;;;;;14.73;5.10;;;;;;;9.73;77.19;100571.59;5050004;28;20048;-83
2023/05/18 04:14:23;;;;;;;12.63;3.88;;;;;;;10.28;74.86;100565.66;5049553;28;20041;-82
2023/05/18 04:16:50;;;;;;;10.90;4.10;;;;;;;11.02;73.13;100588.47;5049934;28;20029;-82
2023/05/18 04:19:17;;;;;;;11.43;4.15;;;;;;;11.36;71.31;100595.97;5049600;28;20049;-82
2023/05/18 04:21:46;;;;;;;14.55;4.68;;;;;;;11.32;70.91;100576.13;5049907;28;20725;-82
2023/05/18 04:24:13;;;;;;;14.63;4.45;;;;;;;11.21;70.79;100596.53;5049805;28;20080;-83
2023/05/18 04:26:39;;;;;;;14.20;4.85;;;;;;;10.95;71.50;100581.72;5049573;28;20424;-83
2023/05/18 04:29:06;;;;;;;10.70;4.10;;;;;;;10.98;72.29;100605.09;5049839;28;20148;-83
2023/05/18 04:31:33;;;;;;;15.75;5.43;;;;;;;10.53;72.75;100582.22;5049522;28;20111;-83
2023/05/18 04:33:59;;;;;;;9.70;4.40;;;;;;;10.48;73.23;100597.16;5049642;28;20392;-83
2023/05/18 04:36:29;;;;;;;14.63;5.25;;;;;;;10.46;73.72;100599.81;5049275;28;20039;-83
2023/05/18 04:38:57;;;;;;;11.23;4.95;;;;;;;10.26;73.81;100589.16;5049473;28;20104;-83
2023/05/18 04:41:24;;;;;;;13.38;4.57;;;;;;;10.23;74.05;100615.22;5102831;28;20067;-83
2023/05/18 04:43:49;;;;;;;10.02;4.18;;;;;;;10.10;74.49;100590.47;5112493;28;20032;-83
2023/05/18 04:46:15;;;;;;;11.27;4.70;;;;;;;9.92;74.70;100586.66;5112775;28;20026;-83
2023/05/18 04:48:41;;;;;;;13.63;4.60;;;;;;;9.74;75.27;100588.03;5112321;28;20019;-83
2023/05/18 04:51:07;;;;;;;10.18;4.68;;;;;;;9.75;75.17;100587.13;5112413;28;20026;-82
2023/05/18 04:53:33;;;;;;;11.13;4.57;;;;;;;9.94;74.83;100631.69;5112163;28;20040;-82
2023/05/18 04:56:01;;;;;;;11.65;4.63;;;;;;;9.95;75.17;100618.66;5112335;28;20023;-83
2023/05/18 04:58:26;;;;;;;11.32;4.65;;;;;;;9.83;74.90;100606.00;5112294;28;20051;-83
2023/05/18 05:00:52;;;;;;;10.32;4.47;;;;;;;10.00;74.81;100627.19;5112066;28;20050;-83
2023/05/18 05:03:18;;;;;;;12.60;4.45;;;;;;;9.93;75.04;100624.78;5112186;28;20035;-83
2023/05/18 05:05:43;;;;;;;9.52;4.63;;;;;;;9.84;75.32;100606.84;5112230;28;20028;-83
2023/05/18 05:08:08;;;;;;;12.70;4.75;;;;;;;9.55;75.94;100594.63;5112565;28;20126;-83
2023/05/18 05:10:34;;;;;;;9.82;4.60;;;;;;;9.81;75.86;100619.94;5112451;28;20024;-83
2023/05/18 05:12:59;;;;;;;9.00;4.50;;;;;;;9.77;75.75;100589.69;5112213;28;20044;-83
2023/05/18 05:15:25;;;;;;;11.95;5.03;;;;;;;9.94;75.45;100605.66;5112172;28;20642;-83
2023/05/18 05:17:50;;;;;;;13.02;4.78;;;;;;;9.92;75.19;100617.88;5112242;28;20382;-83
2023/05/18 05:20:16;;;;;;;11.27;5.22;;;;;;;9.94;75.20;100611.75;5112211;28;20054;-83
2023/05/18 05:22:41;;;;;;;15.02;5.63;;;;;;;9.90;74.79;100599.72;5111966;28;20066;-83
2023/05/18 05:25:07;;;;;;;13.25;5.03;;;;;;;9.85;74.43;100598.13;5112077;28;20494;-83
2023/05/18 05:27:32;;;;;;;12.30;5.20;;;;;;;9.86;75.51;100615.44;5112110;28;20478;-83
2023/05/18 05:29:58;;;;;;;12.50;5.32;;;;;;;9.87;75.19;100612.81;5112167;28;20379;-83
2023/05/18 05:32:23;;;;;;;9.40;5.07;;;;;;;10.13;74.91;100629.44;5112176;28;20023;-83
2023/05/18 05:34:49;;;;;;;16.23;5.72;;;;;;;10.04;74.79;100633.16;5111987;28;20023;-83
2023/05/18 05:37:15;;;;;;;13.10;5.32;;;;;;;9.65;74.86;100577.88;5112089;28;20112;-83
2023/05/18 05:39:40;;;;;;;11.40;5.43;;;;;;;9.87;75.48;100633.63;5111655;28;20032;-83
2023/05/18 05:42:07;;;;;;;17.65;7.05;;;;;;;9.71;75.65;100606.31;5112036;28;20036;-83
2023/05/18 05:44:32;;;;;;;12.75;6.50;;;;;;;9.97;75.58;100623.81;5111897;28;20570;-83
2023/05/18 05:46:58;;;;;;;17.80;7.03;;;;;;;9.98;75.21;100613.34;5111870;28;20110;-83
2023/05/18 05:49:23;;;;;;;18.23;11.50;;;;;;;10.01;75.32;100609.81;5111605;28;20023;-83
2023/05/18 05:51:48;;;;;;;13.85;6.35;;;;;;;10.23;74.59;100643.88;5111960;28;20516;-83
2023/05/18 05:54:14;;;;;;;10.75;5.95;;;;;;;10.17;74.45;100631.03;5111756;28;20016;-83
2023/05/18 05:56:39;;;;;;;12.35;6.18;;;;;;;10.10;74.01;100617.34;5111839;28;20475;-83
2023/05/18 05:59:05;;;;;;;12.73;5.80;;;;;;;10.23;73.57;100620.44;5112282;28;20019;-83
2023/05/18 06:01:31;;;;;;;19.83;8.85;;;;;;;10.20;73.38;100605.78;5111619;28;20032;-83
2023/05/18 06:03:56;;;;;;;16.70;6.38;;;;;;;10.51;72.87;100645.69;5111885;28;20379;-83
2023/05/18 06:06:21;;;;;;;11.82;6.32;;;;;;;10.52;72.53;100648.25;5111470;28;20031;-83
2023/05/18 06:08:47;;;;;;;12.88;5.60;;;;;;;10.45;72.42;100616.34;5111634;28;20028;-83
2023/05/18 06:11:12;;;;;;;10.95;5.10;;;;;;;10.54;71.58;100612.59;5111898;28;20028;-83
2023/05/18 06:13:37;;;;;;;10.50;5.18;;;;;;;10.78;71.72;100650.03;5112929;28;20047;-83
2023/05/18 06:16:03;;;;;;;9.80;4.93;;;;;;;10.82;71.45;100643.81;5115479;28;20076;-83
2023/05/18 06:18:28;;;;;;;8.98;4.78;;;;;;;10.91;71.00;100638.34;5115482;28;20032;-83
2023/05/18 06:20:54;;;;;;;10.88;4.82;;;;;;;10.86;70.90;100621.13;5115106;28;20055;-81
2023/05/18 06:23:21;;;;;;;12.18;4.35;;;;;;;10.98;70.49;100631.16;5114960;28;20089;-81
2023/05/18 06:25:47;;;;;;;11.32;4.80;;;;;;;11.02;69.35;100658.84;5114960;28;20085;-81
2023/05/18 06:28:13;;;;;;;12.23;4.57;;;;;;;11.11;70.11;100662.91;5115144;28;20027;-81
2023/05/18 06:30:38;;;;;;;11.57;6.32;;;;;;;11.20;69.49;100665.19;5114787;28;20016;-81
2023/05/18 06:33:04;;;;;;;10.30;4.97;;;;;;;11.14;69.49;100627.16;5115031;28;20023;-81
2023/05/18 06:35:29;;;;;;;15.75;5.32;;;;;;;11.39;69.50;100632.41;5115043;28;20421;-81
2023/05/18 06:37:55;;;;;;;12.75;4.88;;;;;;;11.36;68.44;100661.19;5115396;28;20310;-81
2023/05/18 06:40:20;;;;;;;11.07;5.13;;;;;;;11.41;68.53;100647.97;5115050;28;20470;-81
2023/05/18 06:42:45;;;;;;;13.05;5.45;;;;;;;11.61;68.17;100639.47;5114503;28;20028;-81
2023/05/18 06:45:11;;;;;;;16.40;4.75;;;;;;;11.95;66.92;100657.44;5114860;28;20035;-81
2023/05/18 06:47:37;;;;;;;8.50;3.95;;;;;;;12.30;65.97;100666.56;5104670;28;20484;-82
2023/05/18 06:50:03;;;;;;;12.20;4.40;;;;;;;12.20;65.23;100645.16;5101994;28;20383;-82
2023/05/18 06:52:28;;;;;;;7.30;4.35;;;;;;;12.39;65.17;100636.66;5101464;28;20060;-82
2023/05/18 06:54:54;;;;;;;6.57;3.45;;;;;;;12.72;63.45;100643.19;5093911;28;20066;-82
2023/05/18 06:57:19;;;;;;;10.05;3.90;;;;;;;12.99;62.22;100674.38;5094280;28;20035;-82
2023/05/18 06:59:49;;;;;;;7.18;3.20;;;;;;;12.83;61.20;100653.19;5094006;28;20061;-82
2023/05/18 07:02:14;;;;;;;11.00;3.30;;;;;;;12.99;60.98;100666.53;5102427;28;20073;-82
2023/05/18 07:04:40;;;;;;;7.40;3.08;;;;;;;13.14;60.57;100671.09;5113969;28;20019;-82
2023/05/18 07:07:06;;;;;;;7.57;3.08;;;;;;;12.87;59.90;100648.69;5104254;28;20028;-82
2023/05/18 07:09:31;;;;;;;9.82;3.55;;;;;;;13.29;59.94;100660.97;5101573;28;20121;-82
2023/05/18 07:11:57;;;;;;;7.95;3.03;;;;;;;13.67;59.95;100668.03;5099632;28;20486;-82
2023/05/18 07:14:22;;;;;;;9.75;2.83;;;;;;;13.60;59.57;100637.81;5104852;28;20046;-82
2023/05/18 07:16:48;;;;;;;9.98;3.10;;;;;;;13.92;58.75;100669.59;5101662;28;20076;-82
2023/05/18 07:19:13;;;;;;;5.28;2.78;;;;;;;13.58;58.45;100639.66;5103347;28;20110;-83
2023/05/18 07:21:39;;;;;;;8.82;3.45;;;;;;;13.75;58.41;100665.09;5104441;28;20486;-85
2023/05/18 07:24:05;;;;;;;10.27;3.05;;;;;;;13.59;58.31;100670.16;5101883;28;20475;-83
2023/05/18 07:26:31;;;;;;;7.20;2.95;;;;;;;13.57;58.79;100672.00;5110529;28;20019;-84
2023/05/18 07:28:56;;;;;;;8.57;3.20;;;;;;;13.35;58.75;100664.16;5104051;28;20035;-82
2023/05/18 07:31:22;;;;;;;7.55;3.50;;;;;;;13.52;58.82;100662.63;5093537;28;20024;-82
2023/05/18 07:33:47;;;;;;;8.00;3.10;;;;;;;13.57;58.10;100647.56;5102025;28;20036;-82
2023/05/18 07:36:13;;;;;;;6.28;2.85;;;;;;;13.60;58.23;100666.59;5096135;28;20034;-82
2023/05/18 07:38:38;;;;;;;7.18;3.08;;;;;;;13.42;58.33;100665.63;5094795;28;20488;-82
2023/05/18 07:41:04;;;;;;;10.38;5.00;;;;;;;13.36;59.14;100670.28;5080689;28;20051;-83
2023/05/18 07:43:29;;;;;;;7.57;2.83;;;;;;;13.48;58.08;100652.28;5113301;28;20524;-83
2023/05/18 07:45:55;;;;;;;7.35;3.85;;;;;;;13.86;57.96;100678.59;5113773;28;20023;-83
2023/05/18 07:48:20;;;;;;;9.98;3.47;;;;;;;13.86;57.33;100665.50;5113769;28;20028;-83
2023/05/18 07:50:45;;;;;;;5.22;2.30;;;;;;;13.94;57.25;100650.25;5113055;28;20539;-83
2023/05/18 07:53:11;;;;;;;6.55;2.72;;;;;;;14.33;56.42;100667.75;5113346;28;20479;-83
2023/05/18 07:55:36;;;;;;;5.50;2.40;;;;;;;14.34;55.58;100671.22;5112982;28;20374;-83
2023/05/18 07:58:01;;;;;;;7.60;2.10;;;;;;;14.02;54.92;100665.66;5113234;28;20390;-83
2023/05/18 08:00:27;;;;;;;7.80;2.47;;;;;;;14.25;55.06;100648.06;5112936;28;20026;-82
2023/05/18 08:02:53;;;;;;;6.50;2.05;;;;;;;14.29;54.79;100650.47;5094830;28;20058;-83
2023/05/18 08:05:21;;;;;;;6.47;2.03;;;;;;;14.38;53.86;100641.31;5113044;28;20047;-82
2023/05/18 08:07:46;;;;;;;6.20;1.70;;;;;;;14.79;53.36;100668.25;5112877;28;20028;-82
2023/05/18 08:10:12;;;;;;;8.05;2.30;;;;;;;14.90;52.19;100628.38;5113436;28;20387;-82
2023/05/18 08:12:37;;;;;;;7.68;2.55;;;;;;;14.77;53.37;100666.59;5112659;28;20041;-83
2023/05/18 08:15:03;;;;;;;7.00;3.55;;;;;;;15.00;53.64;100645.38;5094595;28;20023;-82
2023/05/18 08:17:28;;;;;;;5.72;2.30;;;;;;;15.25;52.46;100628.38;5094264;28;20027;-82
2023/05/18 08:19:54;;;;;;;5.53;2.15;;;;;;;15.76;53.36;100640.69;5112736;28;20020;-82
2023/05/18 08:22:19;;;;;;;9.00;2.13;;;;;;;15.48;51.80;100634.19;5112705;28;20042;-82
2023/05/18 08:24:45;;;;;;;4.45;2.58;;;;;;;15.23;52.44;100623.22;5112667;28;20062;-82
2023/05/18 08:27:11;;;;;;;6.07;2.20;;;;;;;15.52;52.37;100652.41;5112566;28;20160;-82
2023/05/18 08:29:36;;;;;;;7.65;2.22;;;;;;;15.74;52.40;100657.44;5112434;28;20032;-82
2023/05/18 08:32:04;;;;;;;4.22;1.60;;;;;;;15.35;52.18;100651.47;5112711;28;20026;-82
2023/05/18 08:34:30;;;;;;;4.85;1.70;;;;;;;15.23;52.77;100636.34;5112568;28;20035;-82
2023/05/18 08:36:55;;;;;;;3.45;1.65;;;;;;;15.44;52.54;100669.41;5111710;28;20360;-82
2023/05/18 08:39:21;;;;;;;8.20;1.63;;;;;;;15.29;52.17;100670.16;5094657;28;20022;-82
2023/05/18 08:41:58;;;;;;;2.85;1.60;;;;;;;15.28;51.38;100660.59;5112688;28;20027;-82
2023/05/18 08:44:38;;;;;;;4.00;1.55;;;;;;;14.69;52.40;100632.88;5112515;28;20122;-82
2023/05/18 08:47:08;;;;;;;2.85;1.70;;;;;;;14.92;52.85;100661.47;5094105;28;20356;-82
2023/05/18 08:49:34;;;;;;;4.90;2.10;;;;;;;14.70;53.04;100668.66;5112236;28;20073;-82
2023/05/18 08:52:03;;;;;;;3.17;2.05;;;;;;;15.17;53.41;100657.66;5112522;28;20040;-82
2023/05/18 08:54:30;;;;;;;4.80;1.90;;;;;;;15.16;52.64;100648.91;5112708;28;20028;-82
2023/05/18 08:56:57;;;;;;;3.13;1.70;;;;;;;15.22;53.30;100632.88;5112416;28;20038;-82
2023/05/18 08:59:25;;;;;;;4.93;2.47;;;;;;;15.26;52.96;100653.72;5112348;28;20417;-82
2023/05/18 09:01:53;;;;;;;6.65;3.85;;;;;;;15.38;52.85;100660.97;5111861;28;20494;-82
2023/05/18 09:04:20;;;;;;;4.60;2.60;;;;;;;14.73;52.90;100621.31;5112375;28;20024;-82
2023/05/18 09:06:47;;;;;;;4.93;1.70;;;;;;;14.89;53.59;100632.78;5112191;28;20038;-82
2023/05/18 09:09:13;;;;;;;5.63;2.10;;;;;;;15.00;53.35;100632.25;5112410;28;20030;-82
2023/05/18 09:11:39;;;;;;;6.78;2.50;;;;;;;14.80;53.73;100614.03;5111902;28;20486;-82
2023/05/18 09:14:05;;;;;;;4.28;2.50;;;;;;;15.09;54.17;100633.56;5111985;28;20047;-82
2023/05/18 09:16:31;;;;;;;5.60;2.42;;;;;;;15.10;53.40;100651.00;5112613;28;20539;-82
2023/05/18 09:18:56;;;;;;;4.90;2.50;;;;;;;15.28;53.42;100644.00;5112257;28;20106;-82
2023/05/18 09:21:21;;;;;;;6.57;3.22;;;;;;;15.37;54.05;100630.41;5112206;28;20084;-82
2023/05/18 09:23:47;;;;;;;5.30;2.70;;;;;;;15.55;53.53;100644.34;5111977;28;20028;-82
2023/05/18 09:26:12;;;;;;;6.25;2.70;;;;;;;15.37;53.47;100622.53;5112169;28;20076;-82
2023/05/18 09:28:40;;;;;;;3.88;1.83;;;;;;;15.44;52.91;100651.00;5111900;28;20028;-82
2023/05/18 09:31:07;;;;;;;3.22;2.10;;;;;;;15.60;52.62;100655.50;5111927;28;20034;-82
2023/05/18 09:33:36;;;;;;;4.10;2.58;;;;;;;15.45;53.20;100638.72;5111935;28;20024;-82
2023/05/18 09:36:04;;;;;;;6.80;2.53;;;;;;;15.48;53.13;100651.72;5112104;28;20045;-82
2023/05/18 09:38:29;;;;;;;7.00;2.42;;;;;;;15.66;52.54;100623.69;5112043;28;20062;-82
2023/05/18 09:40:54;;;;;;;5.20;2.10;;;;;;;15.63;53.92;100639.56;5112083;28;20479;-82
2023/05/18 09:43:20;;;;;;;6.50;2.70;;;;;;;15.70;53.22;100618.19;5111856;28;20106;-82
2023/05/18 09:45:48;;;;;;;7.18;2.70;;;;;;;15.74;51.78;100646.94;5111673;28;20028;-82
2023/05/18 09:48:15;;;;;;;5.25;2.05;;;;;;;15.39;52.88;100623.31;5114563;28;20031;-82
2023/05/18 09:50:44;;;;;;;5.68;2.55;;;;;;;15.79;54.04;100643.13;5115856;28;20024;-82
2023/05/18 09:53:11;;;;;;;5.25;2.35;;;;;;;15.82;53.31;100607.97;5115864;28;20031;-82
2023/05/18 09:55:43;;;;;;;5.50;2.72;;;;;;;16.07;53.61;100645.16;5097162;28;20034;-82
2023/05/18 09:58:08;;;;;;;6.45;2.13;;;;;;;16.02;52.58;100647.19;5115782;28;20368;-82
2023/05/18 10:00:39;;;;;;;5.15;2.30;;;;;;;16.20;52.69;100630.41;5115455;28;20019;-82
2023/05/18 10:03:16;;;;;;;14.88;8.35;;;;;;;15.71;52.58;100613.78;5115621;28;20031;-83
2023/05/18 10:05:41;;;;;;;8.68;2.63;;;;;;;15.22;52.77;100598.75;5115229;28;20026;-83
2023/05/18 10:08:06;;;;;;;5.00;2.67;;;;;;;15.13;53.57;100608.88;5115488;28;20031;-82
2023/05/18 10:10:37;;;;;;;4.20;2.17;;;;;;;15.27;52.88;100629.19;5115273;28;20383;-82
2023/05/18 10:13:03;;;;;;;4.47;2.60;;;;;;;14.77;53.79;100630.75;5096916;28;20187;-82
2023/05/18 10:15:28;;;;;;;3.90;2.25;;;;;;;14.81;53.60;100618.34;5115418;28;20027;-82
2023/05/18 10:17:55;;;;;;;4.05;2.13;;;;;;;14.81;55.31;100629.66;5115087;28;20027;-82
2023/05/18 10:20:28;;;;;;;4.63;2.45;;;;;;;14.66;53.78;100604.19;5115300;28;20034;-82
2023/05/18 10:22:55;;;;;;;4.53;1.95;;;;;;;14.88;53.15;100646.81;5115005;28;20059;-82
2023/05/18 10:25:22;;;;;;;5.22;2.70;;;;;;;14.71;52.74;100631.91;5115076;28;20032;-82
2023/05/18 10:27:50;;;;;;;5.38;4.30;;;;;;;14.53;54.32;100606.53;5114982;28;20127;-82
2023/05/18 10:30:18;;;;;;;4.78;2.75;;;;;;;14.25;54.39;100574.69;5115052;28;20092;-82
2023/05/18 10:32:44;;;;;;;4.97;2.38;;;;;;;14.43;54.09;100616.59;5115040;28;20028;-82
2023/05/18 10:35:10;;;;;;;18.20;9.35;;;;;;;14.53;54.77;100619.66;5096580;28;20024;-82
2023/05/18 10:37:40;;;;;;;8.05;4.53;;;;;;;14.34;54.88;100611.78;5114537;28;20054;-82
2023/05/18 10:40:07;;;;;;;6.75;3.90;;;;;;;14.56;54.71;100614.25;5114686;28;20421;-82
2023/05/18 10:42:33;;;;;;;5.70;2.40;;;;;;;14.73;55.02;100613.47;5114874;28;20023;-82
2023/05/18 10:45:00;;;;;;;8.85;4.18;;;;;;;14.54;54.48;100599.53;5114429;28;20479;-82
2023/05/18 10:47:27;;;;;;;3.95;2.35;;;;;;;14.74;55.15;100620.38;5114667;28;20132;-82
2023/05/18 10:49:53;;;;;;;5.20;2.28;;;;;;;15.03;55.26;100626.00;5114394;28;20063;-82
2023/05/18 10:52:20;;;;;;;5.93;2.22;;;;;;;14.71;54.00;100563.72;5114507;28;20024;-82
2023/05/18 10:54:46;;;;;;;7.80;2.28;;;;;;;15.06;54.32;100621.44;5114444;28;20085;-82
2023/05/18 10:57:17;;;;;;;4.88;2.42;;;;;;;14.95;53.96;100608.84;5114594;28;20110;-83
2023/05/18 10:59:44;;;;;;;4.78;2.50;;;;;;;14.91;53.80;100606.44;5095068;28;20020;-82
2023/05/18 11:02:17;;;;;;;4.82;2.13;;;;;;;14.80;53.91;100591.25;5114284;28;20047;-82
2023/05/18 11:04:46;;;;;;;4.85;2.58;;;;;;;14.76;53.97;100581.84;5114055;28;20024;-82
2023/05/18 11:07:12;;;;;;;6.22;2.60;;;;;;;15.10;53.83;100603.78;5114345;28;20080;-82
2023/05/18 11:09:42;;;;;;;4.70;2.70;;;;;;;15.21;54.14;100604.94;5114103;28;20129;-82
2023/05/18 11:12:12;;;;;;;4.50;2.00;;;;;;;15.15;54.55;100602.63;5114192;28;20528;-82
2023/05/18 11:14:48;;;;;;;3.70;2.10;;;;;;;15.00;53.11;100603.41;5113624;28;20100;-82
2023/05/18 11:17:20;;;;;;;4.68;2.25;;;;;;;14.85;52.58;100589.25;5103676;28;20028;-82
2023/05/18 11:20:07;;;;;;;3.80;2.20;;;;;;;14.83;52.56;100606.84;5110839;28;20028;-82
2023/05/18 11:23:00;;;;;;;4.43;2.38;;;;;;;14.76;52.99;100610.69;5114028;28;20020;-82